< < Back
Terminal Aerodrome Forecast


Current Version              Previous Versions:   1  2  3  4  5  6  7  8  9  

Terminal Aerodrome Forecast

047
FTUS42 KTAE 291130
TAFTLH
TAF
KTLH 291130Z 2912/3012 07006KT P6SM FEW080
     FM300200 00000KT P6SM SKC=

Latest METAR

941
SAUS80 KWBC 291300 RRC
MTRTLH
METAR KTLH 291253Z 04007KT 10SM FEW080 10/M02 A3037 RMK AO2 SLP284
T01001017


USA.gov is the U.S. government's official web portal to all federal, state and local government web resources and services.